Time;durP1;ratioP1;P1;durP2;ratioP2;P2;SDS_P1;SDS_P2;PMS_P1;PMS_P2;Temp;Humidity;BMP_temperature;BMP_pressure;BME280_temperature;BME280_humidity;BME280_pressure;Samples;Min_cycle;Max_cycle;Signal;HPM_P1;HPM_P2
2023/01/15 00:01:51;;;;;;;0.55;0.55;;;;;;;5.91;100.00;97463.13;5043007;28;20540;-61
2023/01/15 00:04:18;;;;;;;0.50;0.50;;;;;;;5.55;100.00;97416.00;5044387;28;20110;-58
2023/01/15 00:06:44;;;;;;;0.50;0.50;;;;;;;5.94;100.00;97484.47;5041822;28;20057;-59
2023/01/15 00:09:15;;;;;;;0.50;0.50;;;;;;;5.83;100.00;97467.50;5044142;28;20060;-57
2023/01/15 00:11:42;;;;;;;0.52;0.52;;;;;;;5.58;100.00;97426.38;5044037;28;20092;-60
2023/01/15 00:14:08;;;;;;;0.50;0.50;;;;;;;5.45;100.00;97399.91;5044267;28;20086;-60
2023/01/15 00:16:35;;;;;;;0.60;0.60;;;;;;;5.90;100.00;97478.00;5043406;28;20098;-60
2023/01/15 00:19:03;;;;;;;3.30;1.05;;;;;;;5.66;100.00;97444.75;5024524;28;20115;-60
2023/01/15 00:21:30;;;;;;;1.15;1.15;;;;;;;5.79;100.00;97465.72;5023969;28;20452;-60
2023/01/15 00:29:28;;;;;;;0.50;0.50;;;;;;;5.80;100.00;97467.34;5043651;28;20110;-58
2023/01/15 00:31:56;;;;;;;0.50;0.50;;;;;;;3.10;100.00;97014.78;5043482;28;20055;-61
2023/01/15 00:34:24;;;;;;;0.60;0.60;;;;;;;5.81;100.00;97471.69;5043976;28;20494;-61
2023/01/15 00:36:51;;;;;;;0.50;0.50;;;;;;;5.86;100.00;97466.06;5042012;28;20052;-60
2023/01/15 00:39:18;;;;;;;0.60;0.60;;;;;;;5.38;100.00;97465.50;5042856;28;20585;-58
2023/01/15 00:41:44;;;;;;;0.50;0.50;;;;;;;5.01;100.00;97405.84;5043161;28;20049;-61
2023/01/15 00:44:11;;;;;;;0.70;0.70;;;;;;;5.33;100.00;97457.44;5042665;28;20159;-57
2023/01/15 00:46:38;;;;;;;0.50;0.50;;;;;;;5.56;100.00;97472.59;5041823;28;20111;-60
2023/01/15 00:49:05;;;;;;;3.80;2.10;;;;;;;5.07;100.00;97449.28;5042247;28;20053;-60
2023/01/15 00:51:31;;;;;;;3.15;2.28;;;;;;;4.98;100.00;97428.44;5043395;28;20088;-57
2023/01/15 00:53:58;;;;;;;1.75;1.60;;;;;;;5.02;100.00;97467.81;5044384;28;20187;-60
2023/01/15 00:56:26;;;;;;;0.50;0.50;;;;;;;5.07;100.00;97467.66;5047246;28;20049;-60
2023/01/15 00:58:53;;;;;;;0.50;0.50;;;;;;;5.18;100.00;97441.50;5047192;28;20053;-60
2023/01/15 01:01:20;;;;;;;0.50;0.50;;;;;;;5.38;100.00;97460.03;5047044;28;20733;-57
2023/01/15 01:03:49;;;;;;;0.47;0.47;;;;;;;5.34;100.00;97456.31;5046483;28;20100;-60
2023/01/15 01:06:15;;;;;;;0.50;0.50;;;;;;;4.96;100.00;97397.75;5046100;28;20068;-60
2023/01/15 01:08:46;;;;;;;0.60;0.60;;;;;;;5.08;100.00;97428.09;5047580;28;20092;-60
2023/01/15 01:11:16;;;;;;;0.50;0.50;;;;;;;5.48;100.00;97457.75;5047208;28;20115;-58
2023/01/15 01:13:44;;;;;;;0.50;0.50;;;;;;;3.22;100.00;97086.09;5041927;28;20107;-60
2023/01/15 01:16:21;;;;;;;0.50;0.50;;;;;;;5.55;100.00;97454.47;5029022;28;20045;-58
2023/01/15 01:18:47;;;;;;;0.50;0.50;;;;;;;5.60;100.00;97452.38;5027998;28;20500;-57
2023/01/15 01:21:14;;;;;;;0.50;0.50;;;;;;;5.45;100.00;97438.38;5026961;28;20053;-59
2023/01/15 01:23:41;;;;;;;0.50;0.50;;;;;;;5.40;100.00;97416.56;5035088;28;20107;-60
2023/01/15 01:26:07;;;;;;;0.50;0.50;;;;;;;5.76;100.00;97455.38;5065824;28;20106;-59
2023/01/15 01:28:35;;;;;;;0.50;0.50;;;;;;;5.73;100.00;97456.03;5066976;28;20056;-59
2023/01/15 01:31:06;;;;;;;0.50;0.50;;;;;;;5.63;100.00;97440.72;5066672;28;20041;-59
2023/01/15 01:33:33;;;;;;;1.02;1.02;;;;;;;5.79;100.00;97454.72;5048907;28;20048;-60
2023/01/15 01:35:59;;;;;;;0.50;0.50;;;;;;;5.75;100.00;97448.28;5045774;28;20079;-61
2023/01/15 01:38:26;;;;;;;0.60;0.60;;;;;;;5.74;100.00;97458.47;5045026;28;20061;-57
2023/01/15 01:40:53;;;;;;;0.50;0.50;;;;;;;5.61;100.00;97447.69;5045385;28;20056;-60
2023/01/15 01:43:23;;;;;;;0.50;0.50;;;;;;;5.57;100.00;97457.72;5046691;28;20135;-57
2023/01/15 01:45:50;;;;;;;0.50;0.50;;;;;;;5.50;100.00;97457.41;5046235;28;20052;-61
2023/01/15 01:48:23;;;;;;;0.50;0.50;;;;;;;5.58;100.00;97453.84;5046523;28;20056;-59
2023/01/15 01:50:50;;;;;;;0.70;0.70;;;;;;;5.71;100.00;97458.31;5044999;28;20116;-61
2023/01/15 01:53:21;;;;;;;0.60;0.60;;;;;;;5.41;100.00;97404.44;5046179;28;20087;-60
2023/01/15 01:55:49;;;;;;;0.60;0.60;;;;;;;5.74;100.00;97446.66;5046489;28;20437;-57
2023/01/15 01:58:18;;;;;;;0.50;0.50;;;;;;;5.68;100.00;97447.97;5045741;28;20507;-62
2023/01/15 02:00:48;;;;;;;0.43;0.43;;;;;;;5.67;100.00;97441.69;5046200;28;20049;-59
2023/01/15 02:03:17;;;;;;;0.50;0.50;;;;;;;5.51;100.00;97437.88;5046284;28;20075;-57
2023/01/15 02:05:48;;;;;;;0.50;0.50;;;;;;;5.60;100.00;97429.56;5035476;28;20057;-61
2023/01/15 02:08:15;;;;;;;0.60;0.60;;;;;;;5.69;100.00;97433.13;5045947;28;20491;-58
2023/01/15 02:10:41;;;;;;;0.50;0.50;;;;;;;5.64;100.00;97420.34;5046033;28;20130;-60
2023/01/15 02:13:25;;;;;;;0.50;0.50;;;;;;;5.72;100.00;97415.97;5045278;28;20048;-60
2023/01/15 02:16:04;;;;;;;;;;;;;;;5.75;100.00;97418.06;5045305;28;20053;-60
2023/01/15 02:18:39;;;;;;;0.70;0.70;;;;;;;5.70;100.00;97419.03;5046040;28;19928;-61
2023/01/15 02:21:20;;;;;;;0.60;0.60;;;;;;;5.65;100.00;97421.16;5045467;28;20140;-61
2023/01/15 02:23:53;;;;;;;0.50;0.50;;;;;;;5.63;100.00;97417.91;5053745;28;20513;-61
2023/01/15 02:26:22;;;;;;;0.93;0.93;;;;;;;5.66;100.00;97411.75;5063835;28;20095;-61
2023/01/15 02:28:53;;;;;;;0.57;0.57;;;;;;;5.67;100.00;97402.41;5065465;28;20171;-57
2023/01/15 02:31:32;;;;;;;0.50;0.50;;;;;;;5.71;100.00;97408.84;5065461;28;20072;-59
2023/01/15 02:34:05;;;;;;;0.50;0.50;;;;;;;5.74;100.00;97403.50;5065655;28;20048;-58
2023/01/15 02:36:36;;;;;;;0.50;0.50;;;;;;;5.22;100.00;97346.31;5065340;28;20056;-61
2023/01/15 02:39:07;;;;;;;0.50;0.50;;;;;;;5.64;100.00;97422.31;5058638;28;20048;-62
2023/01/15 02:41:39;;;;;;;0.50;0.50;;;;;;;5.48;100.00;97377.25;5043819;28;20530;-57
2023/01/15 02:44:08;;;;;;;0.50;0.50;;;;;;;5.72;100.00;97424.22;5045366;28;20136;-61
2023/01/15 02:46:37;;;;;;;0.57;0.57;;;;;;;5.76;100.00;97423.22;5045285;28;20063;-60
2023/01/15 02:49:07;;;;;;;0.95;0.65;;;;;;;5.66;100.00;97422.75;5045179;28;20057;-59
2023/01/15 02:51:40;;;;;;;0.50;0.50;;;;;;;4.64;100.00;97276.44;5044744;28;20530;-58
2023/01/15 02:54:12;;;;;;;0.50;0.50;;;;;;;5.55;100.00;97435.25;5045492;28;20060;-57
2023/01/15 02:56:42;;;;;;;0.60;0.60;;;;;;;5.17;100.00;97361.03;5047078;28;20045;-58
2023/01/15 02:59:17;;;;;;;0.50;0.50;;;;;;;5.43;100.00;97404.91;5060658;28;20060;-60
2023/01/15 03:01:55;;;;;;;0.50;0.50;;;;;;;5.47;100.00;97414.13;5064571;28;20526;-57
2023/01/15 03:05:05;;;;;;;0.50;0.50;;;;;;;5.11;100.00;97383.50;5065022;28;20048;-60
2023/01/15 03:07:38;;;;;;;0.50;0.50;;;;;;;5.61;100.00;97431.19;5064331;28;20048;-61
2023/01/15 03:10:05;;;;;;;0.50;0.50;;;;;;;5.28;100.00;97381.53;5063770;28;20495;-61
2023/01/15 03:13:01;;;;;;;2.05;1.40;;;;;;;5.41;100.00;97437.38;5064860;28;20063;-59
2023/01/15 03:18:13;;;;;;;0.50;0.50;;;;;;;5.62;100.00;97428.13;5064909;28;20072;-58
2023/01/15 03:20:47;;;;;;;0.50;0.50;;;;;;;5.64;100.00;97427.78;5064275;28;20048;-57
2023/01/15 03:23:17;;;;;;;0.73;0.73;;;;;;;5.16;100.00;97342.16;5064689;28;20499;-62
2023/01/15 03:25:47;;;;;;;0.60;0.60;;;;;;;5.33;100.00;97405.25;5053529;28;20087;-57
2023/01/15 03:28:19;;;;;;;0.50;0.50;;;;;;;5.53;100.00;97440.28;5044813;28;20420;-57
2023/01/15 03:30:46;;;;;;;0.50;0.50;;;;;;;5.71;100.00;97425.31;5042755;28;20080;-58
2023/01/15 03:33:14;;;;;;;0.50;0.50;;;;;;;5.73;100.00;97428.56;5044593;28;20053;-61
2023/01/15 03:35:51;;;;;;;0.50;0.50;;;;;;;5.72;100.00;97429.72;5042858;28;20266;-57
2023/01/15 03:38:21;;;;;;;0.50;0.50;;;;;;;5.00;100.00;97321.84;5044677;28;20102;-62
2023/01/15 03:40:48;;;;;;;0.73;0.73;;;;;;;5.26;100.00;97427.75;5044391;28;20507;-62
2023/01/15 03:46:11;;;;;;;0.60;0.60;;;;;;;5.50;100.00;97424.44;5050107;28;20099;-61
2023/01/15 03:48:48;;;;;;;0.98;0.98;;;;;;;4.86;100.00;97322.06;5044221;28;20048;-61
2023/01/15 03:51:33;;;;;;;0.70;0.70;;;;;;;5.23;100.00;97413.88;5044121;28;20053;-61
2023/01/15 03:54:02;;;;;;;3.78;1.58;;;;;;;4.72;100.00;97408.44;5044679;28;20111;-61
2023/01/15 03:56:37;;;;;;;3.10;1.60;;;;;;;3.99;100.00;97327.94;5043907;28;20052;-61
2023/01/15 03:59:47;;;;;;;0.50;0.50;;;;;;;4.79;100.00;97438.97;5042830;28;20138;-61
2023/01/15 04:02:17;;;;;;;0.52;0.52;;;;;;;4.87;100.00;97411.50;5036259;28;20095;-61
2023/01/15 04:04:46;;;;;;;1.50;1.35;;;;;;;4.84;100.00;97408.59;5054632;28;20054;-61
2023/01/15 04:07:13;;;;;;;1.25;1.10;;;;;;;5.08;100.00;97439.88;5064047;28;20045;-62
2023/01/15 04:09:40;;;;;;;0.50;0.50;;;;;;;5.12;100.00;97429.06;5064336;28;20115;-61
2023/01/15 04:12:07;;;;;;;0.50;0.50;;;;;;;4.82;100.00;97386.16;5044825;28;20061;-61
2023/01/15 04:14:34;;;;;;;0.50;0.50;;;;;;;5.03;100.00;97409.03;5044364;28;20080;-57
2023/01/15 04:17:01;;;;;;;0.45;0.45;;;;;;;5.15;100.00;97434.72;5043652;28;20105;-58
2023/01/15 04:19:27;;;;;;;0.50;0.50;;;;;;;5.30;100.00;97441.63;5044305;28;20516;-57
2023/01/15 04:21:54;;;;;;;0.70;0.70;;;;;;;5.27;100.00;97442.28;5051642;28;20051;-62
2023/01/15 04:24:21;;;;;;;2.42;1.70;;;;;;;5.01;100.00;97447.78;5063731;28;20095;-62
2023/01/15 04:26:47;;;;;;;0.50;0.50;;;;;;;5.15;100.00;97442.16;5061788;28;20056;-62
2023/01/15 04:29:14;;;;;;;0.50;0.50;;;;;;;4.71;100.00;97380.19;5063312;28;20064;-57
2023/01/15 04:31:40;;;;;;;0.93;0.93;;;;;;;5.24;100.00;97448.41;5067347;28;20511;-58
2023/01/15 04:34:07;;;;;;;0.50;0.50;;;;;;;5.27;100.00;97448.59;5067664;28;20165;-57
2023/01/15 04:36:36;;;;;;;0.63;0.63;;;;;;;5.27;100.00;97434.84;5067412;28;20127;-62
2023/01/15 04:39:04;;;;;;;0.50;0.50;;;;;;;5.36;100.00;97462.31;5067898;28;20088;-62
2023/01/15 04:44:16;;;;;;;0.60;0.60;;;;;;;5.54;100.00;97452.88;5067791;28;20049;-60
2023/01/15 04:46:45;;;;;;;1.80;1.70;;;;;;;5.44;100.00;97443.03;5065997;28;20052;-61
2023/01/15 04:49:14;;;;;;;0.50;0.50;;;;;;;5.50;100.00;97460.16;5059723;28;20459;-60
2023/01/15 04:51:41;;;;;;;2.25;2.13;;;;;;;5.59;100.00;97460.94;5047576;28;20049;-60
2023/01/15 04:54:10;;;;;;;0.50;0.50;;;;;;;5.52;100.00;97441.41;5047549;28;20046;-61
2023/01/15 04:56:39;;;;;;;0.63;0.63;;;;;;;5.55;100.00;97454.47;5047101;28;20622;-56
2023/01/15 04:59:07;;;;;;;1.23;1.13;;;;;;;5.73;100.00;97456.84;5048061;28;20139;-56
2023/01/15 05:01:33;;;;;;;0.50;0.50;;;;;;;5.81;100.00;97463.44;5052107;28;20076;-57
2023/01/15 05:04:01;;;;;;;0.50;0.50;;;;;;;5.81;100.00;97464.25;5066543;28;20135;-61
2023/01/15 05:06:30;;;;;;;0.60;0.60;;;;;;;5.71;100.00;97466.53;5065272;28;20049;-56
2023/01/15 05:08:57;;;;;;;0.77;0.77;;;;;;;5.75;100.00;97465.56;5066930;28;20098;-57
2023/01/15 05:11:24;;;;;;;0.50;0.50;;;;;;;5.78;100.00;97469.59;5050136;28;20150;-60
2023/01/15 05:13:51;;;;;;;0.60;0.60;;;;;;;5.41;100.00;97409.91;5047065;28;20539;-61
2023/01/15 05:16:22;;;;;;;0.50;0.50;;;;;;;5.63;100.00;97450.88;5046648;28;20107;-60
2023/01/15 05:18:49;;;;;;;0.50;0.50;;;;;;;5.79;100.00;97471.22;5047254;28;20114;-59
2023/01/15 05:21:17;;;;;;;0.52;0.52;;;;;;;5.81;100.00;97477.19;5046442;28;20099;-56
2023/01/15 05:23:44;;;;;;;0.50;0.50;;;;;;;5.89;100.00;97479.13;5046953;28;20492;-60
2023/01/15 05:26:11;;;;;;;0.50;0.50;;;;;;;5.81;100.00;97477.19;5061831;28;20535;-60
2023/01/15 05:28:38;;;;;;;0.50;0.50;;;;;;;5.87;100.00;97482.22;5065271;28;20072;-61
2023/01/15 05:31:09;;;;;;;1.08;1.08;;;;;;;5.90;100.00;97478.81;5065996;28;20470;-60
2023/01/15 05:33:36;;;;;;;3.30;1.95;;;;;;;5.76;100.00;97471.88;5066875;28;20481;-60
2023/01/15 05:36:06;;;;;;;0.90;0.90;;;;;;;5.96;100.00;97477.47;5066325;28;20044;-56
2023/01/15 05:38:33;;;;;;;0.50;0.50;;;;;;;5.59;100.00;97427.97;5066211;28;20419;-61
2023/01/15 05:41:53;;;;;;;0.57;0.57;;;;;;;5.89;100.00;97481.88;5063360;28;20055;-61
2023/01/15 05:43:55;;;;;;;0.60;0.60;;;;;;;5.90;100.00;97478.00;5058661;28;20075;-56
2023/01/15 05:46:22;;;;;;;1.77;1.58;;;;;;;5.89;100.00;97477.22;5064629;28;20056;-61
2023/01/15 05:48:49;;;;;;;0.50;0.50;;;;;;;5.67;100.00;97446.38;5066467;28;20462;-61
2023/01/15 05:51:16;;;;;;;0.65;0.65;;;;;;;6.04;100.00;97484.06;5066024;28;20048;-57
2023/01/15 05:53:42;;;;;;;0.50;0.50;;;;;;;5.97;100.00;97472.81;5066247;28;20048;-61
2023/01/15 05:56:09;;;;;;;0.50;0.50;;;;;;;5.98;100.00;97479.91;5065094;28;20113;-61
2023/01/15 05:58:36;;;;;;;0.50;0.50;;;;;;;6.06;100.00;97479.06;5064896;28;20079;-56
2023/01/15 06:01:08;;;;;;;0.50;0.50;;;;;;;5.88;100.00;97445.34;5065891;28;20083;-60
2023/01/15 06:03:35;;;;;;;0.50;0.50;;;;;;;5.72;100.00;97422.25;5066207;28;20130;-56
2023/01/15 06:06:02;;;;;;;0.50;0.50;;;;;;;5.95;100.00;97447.56;5057350;28;20075;-56
2023/01/15 06:08:29;;;;;;;0.50;0.50;;;;;;;6.18;100.00;97478.38;5046141;28;20057;-58
2023/01/15 06:10:56;;;;;;;6.53;2.10;;;;;;;5.96;100.00;97477.47;5062788;28;20139;-60
2023/01/15 06:13:22;;;;;;;3.70;1.05;;;;;;;5.22;100.00;97425.97;5065913;28;20053;-61
2023/01/15 06:15:49;;;;;;;1.75;1.25;;;;;;;5.45;100.00;97476.81;5047842;28;20451;-56
2023/01/15 06:18:16;;;;;;;0.50;0.50;;;;;;;5.41;100.00;97476.66;5045594;28;20063;-57
2023/01/15 06:20:42;;;;;;;1.15;1.15;;;;;;;4.83;100.00;97376.78;5049187;28;20132;-57
2023/01/15 06:23:09;;;;;;;0.50;0.50;;;;;;;5.63;100.00;97490.19;5052191;28;20083;-57
2023/01/15 06:25:36;;;;;;;1.75;1.25;;;;;;;5.65;100.00;97467.88;5065330;28;20047;-56
2023/01/15 06:28:06;;;;;;;6.72;6.32;;;;;;;5.79;100.00;97463.78;5065391;28;20052;-56
2023/01/15 06:30:34;;;;;;;0.50;0.50;;;;;;;5.62;100.00;97460.28;5065535;28;20088;-57
2023/01/15 06:33:00;;;;;;;1.23;1.23;;;;;;;5.39;100.00;97396.50;5065054;28;20155;-58
2023/01/15 06:35:27;;;;;;;0.50;0.50;;;;;;;5.96;100.00;97476.66;5065351;28;20044;-60
2023/01/15 06:37:53;;;;;;;0.60;0.60;;;;;;;5.53;100.00;97407.31;5080628;28;20133;-62
2023/01/15 06:40:22;;;;;;;0.82;0.82;;;;;;;5.78;100.00;97459.44;5060279;28;20044;-60
2023/01/15 06:48:26;;;;;;;0.50;0.50;;;;;;;5.76;100.00;97488.38;5044845;28;20063;-60
2023/01/15 06:50:53;;;;;;;0.50;0.50;;;;;;;5.80;100.00;97489.34;5044732;28;20064;-60
2023/01/15 06:53:20;;;;;;;1.80;1.67;;;;;;;5.89;100.00;97481.88;5044439;28;20569;-56
2023/01/15 06:55:47;;;;;;;0.50;0.50;;;;;;;5.87;100.00;97533.63;5043832;28;20110;-56
2023/01/15 06:58:14;;;;;;;0.50;0.50;;;;;;;5.93;100.00;97488.31;5044781;28;20102;-57
2023/01/15 07:00:42;;;;;;;0.60;0.60;;;;;;;5.51;100.00;97415.88;5054600;28;20044;-61
2023/01/15 07:03:08;;;;;;;4.05;2.45;;;;;;;5.43;100.00;97402.97;5053833;28;20514;-60
2023/01/15 07:05:41;;;;;;;0.50;0.50;;;;;;;5.65;100.00;97443.13;5053471;28;20044;-57
2023/01/15 07:08:07;;;;;;;1.75;1.20;;;;;;;5.87;100.00;97487.72;5064614;28;20530;-56
2023/01/15 07:10:34;;;;;;;1.02;1.02;;;;;;;5.76;100.00;97469.13;5064391;28;20113;-61
2023/01/15 07:13:01;;;;;;;9.40;1.83;;;;;;;5.89;100.00;97482.69;5044544;28;20049;-60
2023/01/15 07:15:29;;;;;;;2.83;2.05;;;;;;;5.52;100.00;97488.09;5044692;28;20060;-57
2023/01/15 07:17:56;;;;;;;2.17;1.48;;;;;;;5.64;100.00;97486.28;5056953;28;20056;-60
2023/01/15 07:20:23;;;;;;;0.80;0.80;;;;;;;5.54;100.00;97477.59;5058928;28;20079;-56
2023/01/15 07:22:51;;;;;;;0.60;0.60;;;;;;;5.66;100.00;97554.66;5044602;28;20053;-61
2023/01/15 07:25:18;;;;;;;0.50;0.50;;;;;;;5.86;100.00;97490.78;5046512;28;20053;-56
2023/01/15 07:27:46;;;;;;;0.50;0.50;;;;;;;5.89;100.00;97484.63;5079874;28;20129;-60
2023/01/15 07:30:13;;;;;;;0.60;0.60;;;;;;;5.31;100.00;97371.84;5064669;28;20052;-60
2023/01/15 07:32:41;;;;;;;0.70;0.70;;;;;;;6.07;100.00;97494.41;5064484;28;20045;-60
2023/01/15 07:35:09;;;;;;;1.02;1.02;;;;;;;5.82;100.00;97493.38;5062639;28;20951;-56
2023/01/15 07:37:36;;;;;;;1.88;1.75;;;;;;;5.56;100.00;97478.91;5064519;28;20064;-57
2023/01/15 07:40:03;;;;;;;1.48;1.38;;;;;;;5.88;100.00;97485.78;5052587;28;20052;-61
2023/01/15 07:50:46;;;;;;;0.60;0.60;;;;;;;6.65;100.00;97494.44;5083850;28;20048;-61
2023/01/15 07:53:13;;;;;;;0.55;0.55;;;;;;;6.85;100.00;97490.88;5084353;28;20063;-60
2023/01/15 07:55:39;;;;;;;0.90;0.90;;;;;;;6.68;100.00;97459.91;5082463;28;20144;-60
2023/01/15 07:58:06;;;;;;;0.50;0.50;;;;;;;7.10;100.00;97484.34;5060315;28;20469;-56
2023/01/15 08:00:32;;;;;;;0.60;0.60;;;;;;;7.37;100.00;97478.28;5047279;28;20080;-56
2023/01/15 08:03:00;;;;;;;1.85;0.90;;;;;;;7.32;100.00;97489.50;5043954;28;20053;-57
2023/01/15 08:05:26;;;;;;;0.60;0.60;;;;;;;7.39;100.00;97492.53;5051549;28;20059;-60
2023/01/15 08:07:53;;;;;;;0.60;0.60;;;;;;;7.46;100.00;97503.00;5063959;28;20249;-61
2023/01/15 08:10:19;;;;;;;0.60;0.60;;;;;;;7.50;99.97;97499.22;5063991;28;20056;-56
2023/01/15 08:15:38;;;;;;;0.60;0.60;;;;;;;6.89;98.01;97409.19;5063874;28;20083;-61
2023/01/15 08:18:06;;;;;;;0.60;0.60;;;;;;;7.43;97.33;97498.97;5064482;28;20140;-56
2023/01/15 08:20:36;;;;;;;0.60;0.60;;;;;;;7.40;96.64;97488.63;5063661;28;20200;-57
2023/01/15 08:23:02;;;;;;;3.33;2.80;;;;;;;7.27;96.73;97500.72;5058664;28;20074;-61
2023/01/15 08:25:29;;;;;;;0.60;0.60;;;;;;;7.43;98.73;97493.44;5041815;28;20106;-61
2023/01/15 08:27:59;;;;;;;1.00;1.00;;;;;;;7.47;97.71;97499.91;5043511;28;20504;-61
2023/01/15 08:30:26;;;;;;;0.60;0.60;;;;;;;7.26;98.50;97455.06;5047638;28;20482;-61
2023/01/15 08:32:58;;;;;;;0.60;0.60;;;;;;;7.63;98.47;97487.06;5050709;28;20052;-57
2023/01/15 08:35:25;;;;;;;0.77;0.77;;;;;;;7.76;97.14;97498.97;5082166;28;20059;-60
2023/01/15 08:37:51;;;;;;;0.60;0.60;;;;;;;7.66;97.06;97497.44;5083257;28;20063;-54
2023/01/15 08:40:18;;;;;;;0.70;0.70;;;;;;;7.72;97.20;97493.31;5098910;28;20468;-56
2023/01/15 08:42:45;;;;;;;0.60;0.60;;;;;;;7.76;97.99;97492.66;5082800;28;20051;-60
2023/01/15 08:45:11;;;;;;;0.60;0.60;;;;;;;7.84;97.07;97491.75;5083804;28;20055;-56
2023/01/15 08:47:38;;;;;;;0.95;0.95;;;;;;;7.90;93.86;97490.38;5099210;28;20048;-56
2023/01/15 08:50:07;;;;;;;0.70;0.70;;;;;;;7.41;94.67;97457.16;5081362;28;20526;-60
2023/01/15 08:52:34;;;;;;;0.60;0.60;;;;;;;7.80;95.94;97496.31;5075781;28;20049;-57
2023/01/15 08:55:01;;;;;;;0.60;0.60;;;;;;;7.62;95.41;97496.50;5043200;28;20049;-62
2023/01/15 08:57:27;;;;;;;0.60;0.60;;;;;;;7.35;96.13;97444.75;5058194;28;20511;-62
2023/01/15 08:59:54;;;;;;;0.63;0.63;;;;;;;7.29;98.05;97481.91;5042780;28;20443;-60
2023/01/15 09:02:21;;;;;;;2.00;1.90;;;;;;;7.12;97.35;97482.09;5054857;28;20052;-60
2023/01/15 09:04:47;;;;;;;0.98;0.98;;;;;;;6.89;100.00;97483.53;5061902;28;20084;-59
2023/01/15 09:07:15;;;;;;;30.13;5.97;;;;;;;6.77;100.00;97422.94;5063268;28;20141;-60
2023/01/15 09:09:42;;;;;;;0.50;0.50;;;;;;;7.49;98.83;97486.56;5063078;28;20446;-60
2023/01/15 09:12:09;;;;;;;1.00;0.77;;;;;;;7.47;98.70;97488.91;5045579;28;20049;-58
2023/01/15 09:14:35;;;;;;;0.60;0.60;;;;;;;7.52;98.27;97491.41;5063584;28;20209;-60
2023/01/15 09:17:22;;;;;;;0.63;0.63;;;;;;;7.64;97.47;97472.16;5066895;28;20044;-60
2023/01/15 09:19:49;;;;;;;0.98;0.98;;;;;;;7.51;95.62;97456.72;5067046;28;20060;-55
2023/01/15 09:22:15;;;;;;;2.35;2.25;;;;;;;6.75;99.32;97455.47;5060356;28;20103;-60
2023/01/15 09:24:42;;;;;;;5.18;3.35;;;;;;;6.73;100.00;97477.06;5045379;28;20057;-56
2023/01/15 09:27:10;;;;;;;0.70;0.70;;;;;;;6.66;100.00;97479.53;5046703;28;20082;-56
2023/01/15 09:29:37;;;;;;;0.60;0.60;;;;;;;6.54;100.00;97465.69;5046498;28;20507;-60
2023/01/15 09:32:04;;;;;;;0.50;0.50;;;;;;;6.66;100.00;97467.69;5063744;28;20585;-58
2023/01/15 09:34:30;;;;;;;0.50;0.50;;;;;;;6.69;100.00;97467.03;5066526;28;20592;-60
2023/01/15 09:36:57;;;;;;;0.90;0.90;;;;;;;6.83;100.00;97471.13;5081665;28;20579;-58
2023/01/15 09:39:24;;;;;;;0.50;0.50;;;;;;;6.81;100.00;97465.16;5062836;28;20053;-57
2023/01/15 09:42:07;;;;;;;0.60;0.60;;;;;;;6.76;100.00;97464.56;5044432;28;20091;-56
2023/01/15 09:45:05;;;;;;;11.00;3.20;;;;;;;6.26;100.00;97463.75;5045337;28;20071;-61
2023/01/15 09:47:52;;;;;;;1.77;1.35;;;;;;;6.61;100.00;97462.41;5058345;28;20110;-58
2023/01/15 09:50:40;;;;;;;0.60;0.60;;;;;;;6.55;100.00;97456.28;5066093;28;20061;-60
2023/01/15 09:53:57;;;;;;;0.60;0.60;;;;;;;6.90;100.00;97451.31;5066007;28;20106;-61
2023/01/15 09:56:27;;;;;;;0.60;0.60;;;;;;;6.88;100.00;97443.41;5003050;28;20105;-60
2023/01/15 09:58:56;;;;;;;0.60;0.60;;;;;;;6.48;100.00;97362.44;5003773;28;20061;-56
2023/01/15 10:01:31;;;;;;;0.60;0.60;;;;;;;7.07;100.00;97449.22;5034725;28;20052;-56
2023/01/15 10:04:01;;;;;;;0.60;0.60;;;;;;;7.20;100.00;97445.38;5066362;28;20051;-61
2023/01/15 10:06:33;;;;;;;6.72;2.03;;;;;;;7.25;100.00;97436.91;5065520;28;20048;-61
2023/01/15 10:09:14;;;;;;;0.60;0.60;;;;;;;7.31;100.00;97429.22;5066303;28;20114;-62
2023/01/15 10:14:53;;;;;;;0.60;0.60;;;;;;;7.34;100.00;97418.34;5046453;28;20076;-62
2023/01/15 10:17:26;;;;;;;0.60;0.60;;;;;;;7.36;100.00;97421.56;5045745;28;20045;-60
2023/01/15 10:19:54;;;;;;;0.60;0.60;;;;;;;7.30;100.00;97409.13;5048989;28;20048;-59
2023/01/15 10:22:47;;;;;;;0.60;0.60;;;;;;;7.47;100.00;97417.22;5063885;28;20102;-61
2023/01/15 10:25:19;;;;;;;0.75;0.75;;;;;;;7.57;100.00;97419.53;5065991;28;20052;-60
2023/01/15 10:27:49;;;;;;;0.60;0.60;;;;;;;7.50;100.00;97411.03;5063073;28;20135;-61
2023/01/15 10:30:16;;;;;;;0.60;0.60;;;;;;;7.61;100.00;97400.34;5065571;28;20503;-60
2023/01/15 10:32:48;;;;;;;0.60;0.60;;;;;;;7.50;100.00;97415.72;5064784;28;20095;-56
2023/01/15 10:35:40;;;;;;;2.05;1.95;;;;;;;7.55;100.00;97368.66;5065587;28;20054;-57
2023/01/15 10:38:07;;;;;;;0.60;0.60;;;;;;;7.66;100.00;97380.84;5064860;28;20197;-61
2023/01/15 10:40:50;;;;;;;0.90;0.90;;;;;;;7.65;99.88;97391.06;5065386;28;20137;-61
2023/01/15 10:43:45;;;;;;;4.78;1.75;;;;;;;7.63;100.00;97384.28;5062946;28;20060;-56
2023/01/15 10:46:15;;;;;;;0.60;0.60;;;;;;;7.59;100.00;97381.41;5045274;28;20558;-60
2023/01/15 10:48:47;;;;;;;1.65;1.55;;;;;;;7.50;100.00;97383.47;5045262;28;20053;-60
2023/01/15 10:51:23;;;;;;;3.67;3.38;;;;;;;6.99;100.00;97372.19;5045135;28;20063;-61
2023/01/15 10:53:56;;;;;;;2.33;2.10;;;;;;;6.46;100.00;97370.25;5045436;28;20053;-60
2023/01/15 10:56:42;;;;;;;6.07;4.70;;;;;;;6.17;100.00;97320.78;5048463;28;20048;-60
2023/01/15 10:59:20;;;;;;;1.40;1.40;;;;;;;6.59;100.00;97355.38;5065281;28;20519;-61
2023/01/15 11:01:52;;;;;;;2.63;2.17;;;;;;;6.09;100.00;97368.41;5064697;28;20048;-57
2023/01/15 11:04:19;;;;;;;5.32;2.95;;;;;;;6.03;100.00;97369.75;5065298;28;20056;-61
2023/01/15 11:06:46;;;;;;;9.20;4.18;;;;;;;5.88;100.00;97349.13;5064206;28;20506;-61
2023/01/15 11:09:33;;;;;;;1.95;1.85;;;;;;;5.91;100.00;97337.44;5065101;28;20579;-56
2023/01/15 11:20:29;;;;;;;4.65;1.95;;;;;;;5.97;100.00;97340.84;5064655;28;20105;-61
2023/01/15 11:23:06;;;;;;;1.05;1.05;;;;;;;5.80;100.00;97291.44;5064487;28;20123;-62
2023/01/15 11:25:33;;;;;;;0.50;0.50;;;;;;;6.12;100.00;97293.47;5063931;28;20546;-61
2023/01/15 11:28:05;;;;;;;5.15;2.63;;;;;;;6.27;100.00;97331.41;5064326;28;20079;-56
2023/01/15 11:30:36;;;;;;;1.67;1.58;;;;;;;6.24;100.00;97343.06;5064630;28;20052;-61
2023/01/15 11:33:06;;;;;;;2.20;1.95;;;;;;;6.32;100.00;97342.19;5064216;28;20109;-56
2023/01/15 11:35:33;;;;;;;1.17;0.95;;;;;;;5.74;100.00;97314.72;5062530;28;20045;-56
2023/01/15 11:38:11;;;;;;;2.20;1.30;;;;;;;5.69;100.00;97331.44;5062155;28;20601;-56
2023/01/15 11:40:38;;;;;;;1.90;1.80;;;;;;;5.80;100.00;97327.16;5063854;28;20056;-56
2023/01/15 11:51:57;;;;;;;0.50;0.50;;;;;;;6.06;100.00;97312.13;5062293;28;20076;-61
2023/01/15 11:54:25;;;;;;;0.50;0.50;;;;;;;6.27;100.00;97312.13;5064129;28;20082;-61
2023/01/15 11:56:53;;;;;;;0.50;0.50;;;;;;;5.92;100.00;97239.31;5064173;28;20107;-60
2023/01/15 11:59:20;;;;;;;0.50;0.50;;;;;;;6.14;100.00;97230.72;5064313;28;20052;-61
2023/01/15 12:02:29;;;;;;;0.60;0.60;;;;;;;6.86;100.00;97301.72;5079051;28;20052;-61
2023/01/15 12:04:59;;;;;;;0.70;0.70;;;;;;;6.89;100.00;97274.28;5041413;28;20084;-57
2023/01/15 12:07:27;;;;;;;1.27;1.25;;;;;;;6.95;100.00;97294.97;5059309;28;20412;-57
2023/01/15 12:13:30;;;;;;;0.60;0.60;;;;;;;6.89;100.00;97223.94;5047360;28;20488;-61
2023/01/15 12:16:18;;;;;;;0.60;0.60;;;;;;;7.36;100.00;97283.78;5041832;28;20543;-57
2023/01/15 12:18:59;;;;;;;0.60;0.60;;;;;;;7.06;100.00;97287.88;5042577;28;20056;-63
2023/01/15 12:21:34;;;;;;;0.50;0.50;;;;;;;6.90;100.00;97226.34;5043715;28;20498;-60
2023/01/15 12:24:38;;;;;;;0.60;0.60;;;;;;;7.29;100.00;97278.03;5043931;28;20057;-58
2023/01/15 12:27:42;;;;;;;1.88;1.73;;;;;;;7.39;100.00;97277.59;5041879;28;20440;-61
2023/01/15 12:30:12;;;;;;;0.60;0.60;;;;;;;7.49;100.00;97282.63;5043829;28;20048;-56
2023/01/15 12:32:44;;;;;;;1.60;1.50;;;;;;;7.12;100.00;97277.44;5043782;28;20103;-58
2023/01/15 12:35:30;;;;;;;5.27;3.23;;;;;;;7.06;100.00;97282.38;5042673;28;20053;-56
2023/01/15 12:38:10;;;;;;;1.73;1.63;;;;;;;7.21;100.00;97275.38;5043954;28;20080;-57
2023/01/15 12:40:51;;;;;;;0.60;0.60;;;;;;;7.01;100.00;97238.53;5043877;28;20060;-60
2023/01/15 12:46:24;;;;;;;0.60;0.60;;;;;;;7.43;100.00;97267.47;5062799;28;20076;-63
2023/01/15 12:49:10;;;;;;;0.57;0.57;;;;;;;7.39;100.00;97261.06;5063510;28;20503;-59